createdAt,value
2018-07-15T00:01:15.340Z,98336.69
2018-07-15T00:03:43.798Z,98335.28
2018-07-15T00:06:12.263Z,98328.72
2018-07-15T00:08:40.676Z,98332.50
2018-07-15T00:11:09.131Z,98326.95
2018-07-15T00:13:37.571Z,98327.20
2018-07-15T00:16:06.029Z,98326.63
2018-07-15T00:18:34.642Z,98333.34
2018-07-15T00:21:03.480Z,98332.94
2018-07-15T00:23:31.923Z,98335.09
2018-07-15T00:26:00.355Z,98337.17
2018-07-15T00:28:28.780Z,98326.34
2018-07-15T00:30:57.225Z,98327.47
2018-07-15T00:33:25.902Z,98327.67
2018-07-15T00:35:54.366Z,98324.05
2018-07-15T00:38:22.813Z,98323.64
2018-07-15T00:40:51.265Z,98335.65
2018-07-15T00:43:19.723Z,98333.84
2018-07-15T00:45:48.424Z,98335.84
2018-07-15T00:48:16.907Z,98333.05
2018-07-15T00:50:45.361Z,98329.57
2018-07-15T00:53:14.004Z,98334.19
2018-07-15T00:55:42.451Z,98340.73
2018-07-15T00:58:10.923Z,98342.84
2018-07-15T01:00:44.572Z,98348.05
2018-07-15T01:03:13.074Z,98336.20
2018-07-15T01:05:41.495Z,98340.03
2018-07-15T01:08:09.957Z,98338.34
2018-07-15T01:10:38.362Z,98334.16
2018-07-15T01:13:07.044Z,98329.21
2018-07-15T01:15:36.013Z,98333.64
2018-07-15T01:18:04.695Z,98326.05
2018-07-15T01:20:33.182Z,98323.19
2018-07-15T01:23:01.736Z,98326.53
2018-07-15T01:25:30.484Z,98330.78
2018-07-15T01:27:59.463Z,98329.24
2018-07-15T01:30:27.918Z,98326.23
2018-07-15T01:32:56.355Z,98329.21
2018-07-15T01:35:24.824Z,98329.17
2018-07-15T01:37:53.323Z,98326.47
2018-07-15T01:40:22.062Z,98326.91
2018-07-15T01:42:50.498Z,98323.30
2018-07-15T01:45:18.943Z,98319.41
2018-07-15T01:47:47.420Z,98326.38
2018-07-15T01:50:16.165Z,98322.33
2018-07-15T01:52:44.584Z,98318.36
2018-07-15T01:55:13.049Z,98317.63
2018-07-15T01:57:41.459Z,98315.08
2018-07-15T02:00:10.153Z,98314.20
2018-07-15T02:02:38.627Z,98307.20
2018-07-15T02:05:07.644Z,98305.66
2018-07-15T02:07:37.182Z,98307.52
2018-07-15T02:10:06.090Z,98310.80
2018-07-15T02:12:34.486Z,98314.81
2018-07-15T02:15:02.924Z,98318.91
2018-07-15T02:17:31.351Z,98326.78
2018-07-15T02:19:59.808Z,98319.97
2018-07-15T02:22:28.255Z,98315.73
2018-07-15T02:24:56.724Z,98317.41
2018-07-15T02:27:25.224Z,98318.00
2018-07-15T02:29:53.665Z,98317.30
2018-07-15T02:32:22.458Z,98317.52
2018-07-15T02:34:50.917Z,98316.26
2018-07-15T02:37:19.552Z,98312.28
2018-07-15T02:39:48.003Z,98309.90
2018-07-15T02:42:17.315Z,98304.97
2018-07-15T02:44:46.071Z,98305.23
2018-07-15T02:47:14.524Z,98306.02
2018-07-15T02:49:43.020Z,98307.81
2018-07-15T02:52:11.478Z,98310.67
2018-07-15T02:54:40.304Z,98305.42
2018-07-15T02:57:08.748Z,98302.89
2018-07-15T02:59:37.208Z,98298.23
2018-07-15T03:02:05.647Z,98300.56
2018-07-15T03:04:34.058Z,98306.02
2018-07-15T03:07:02.520Z,98303.47
2018-07-15T03:09:30.981Z,98305.55
2018-07-15T03:11:59.391Z,98311.95
2018-07-15T03:14:27.841Z,98302.72
2018-07-15T03:16:56.294Z,98303.20
2018-07-15T03:19:24.791Z,98303.71
2018-07-15T03:21:53.266Z,98298.90
2018-07-15T03:24:21.871Z,98284.86
2018-07-15T03:26:50.704Z,98297.58
2018-07-15T03:29:19.175Z,98307.35
2018-07-15T03:31:47.598Z,98303.73
2018-07-15T03:34:16.032Z,98300.92
2018-07-15T03:36:44.495Z,98299.02
2018-07-15T03:39:12.968Z,98307.88
2018-07-15T03:41:41.410Z,98308.31
2018-07-15T03:44:09.868Z,98313.50
2018-07-15T03:46:38.289Z,98310.85
2018-07-15T03:49:37.679Z,98312.45
2018-07-15T03:52:06.330Z,98310.00
2018-07-15T03:54:34.768Z,98308.94
2018-07-15T03:57:03.267Z,98318.11
2018-07-15T03:59:31.723Z,98310.59
2018-07-15T04:02:00.210Z,98317.37
2018-07-15T04:04:28.627Z,98315.92
2018-07-15T04:06:57.044Z,98313.39
2018-07-15T04:09:25.531Z,98317.19
2018-07-15T04:11:54.007Z,98314.63
2018-07-15T04:14:22.495Z,98312.50
2018-07-15T04:16:50.896Z,98316.41
2018-07-15T04:19:19.671Z,98314.61
2018-07-15T04:21:48.091Z,98312.98
2018-07-15T04:24:17.280Z,98305.77
2018-07-15T04:26:45.781Z,98301.80
2018-07-15T04:29:14.239Z,98311.28
2018-07-15T04:31:42.904Z,98302.03
2018-07-15T04:34:11.539Z,98302.42
2018-07-15T04:36:40.014Z,98304.30
2018-07-15T04:39:09.691Z,98306.60
2018-07-15T04:41:38.380Z,98301.72
2018-07-15T04:44:07.496Z,98308.34
2018-07-15T04:46:35.983Z,98313.81
2018-07-15T04:49:04.767Z,98318.72
2018-07-15T04:51:33.282Z,98322.97
2018-07-15T04:54:01.705Z,98323.62
2018-07-15T04:56:30.129Z,98326.68
2018-07-15T04:58:58.683Z,98325.23
2018-07-15T05:01:27.130Z,98318.36
2018-07-15T05:03:55.534Z,98327.72
2018-07-15T05:06:24.012Z,98326.27
2018-07-15T05:08:52.448Z,98330.09
2018-07-15T05:11:20.972Z,98320.01
2018-07-15T05:13:49.459Z,98319.23
2018-07-15T05:16:18.074Z,98333.52
2018-07-15T05:18:46.507Z,98322.91
2018-07-15T05:21:14.936Z,98312.81
2018-07-15T05:23:43.383Z,98328.50
2018-07-15T05:26:11.866Z,98328.50
2018-07-15T05:28:40.333Z,98323.09
2018-07-15T05:31:08.801Z,98317.97
2018-07-15T05:33:38.226Z,98328.70
2018-07-15T05:36:06.684Z,98318.14
2018-07-15T05:38:35.131Z,98326.56
2018-07-15T05:41:03.641Z,98331.16
2018-07-15T05:43:32.095Z,98328.47
2018-07-15T05:46:00.696Z,98323.75
2018-07-15T05:48:29.146Z,98327.83
2018-07-15T05:50:57.738Z,98324.87
2018-07-15T05:53:26.205Z,98323.74
2018-07-15T05:55:54.661Z,98325.44
2018-07-15T05:58:23.113Z,98321.55
2018-07-15T06:00:51.529Z,98314.51
2018-07-15T06:03:19.984Z,98317.53
2018-07-15T06:05:48.463Z,98322.88
2018-07-15T06:08:16.954Z,98327.64
2018-07-15T06:10:45.479Z,98321.81
2018-07-15T06:13:13.895Z,98320.48
2018-07-15T06:15:43.434Z,98324.37
2018-07-15T06:18:11.858Z,98325.86
2018-07-15T06:20:40.281Z,98321.20
2018-07-15T06:23:08.729Z,98319.70
2018-07-15T06:25:37.184Z,98324.39
2018-07-15T06:28:05.658Z,98312.16
2018-07-15T06:30:34.118Z,98318.54
2018-07-15T06:33:02.711Z,98316.23
2018-07-15T06:35:31.159Z,98322.58
2018-07-15T06:37:59.591Z,98318.38
2018-07-15T06:40:28.094Z,98320.06
2018-07-15T06:42:56.530Z,98315.81
2018-07-15T06:45:24.977Z,98312.53
2018-07-15T06:47:53.407Z,98316.52
2018-07-15T06:50:21.847Z,98321.11
2018-07-15T06:52:50.299Z,98318.96
2018-07-15T06:55:18.715Z,98319.64
2018-07-15T06:57:47.184Z,98313.34
2018-07-15T07:00:15.656Z,98311.31
2018-07-15T07:02:44.125Z,98315.47
2018-07-15T07:05:12.616Z,98308.98
2018-07-15T07:07:41.335Z,98319.30
2018-07-15T07:10:09.746Z,98315.79
2018-07-15T07:12:38.184Z,98314.63
2018-07-15T07:15:07.276Z,98304.96
2018-07-15T07:17:35.780Z,98304.81
2018-07-15T07:20:04.264Z,98308.75
2018-07-15T07:22:32.795Z,98305.02
2018-07-15T07:25:01.242Z,98299.52
2018-07-15T07:27:29.738Z,98307.15
2018-07-15T07:29:58.460Z,98306.35
2018-07-15T07:32:26.959Z,98305.85
2018-07-15T07:34:55.447Z,98298.59
2018-07-15T07:37:24.275Z,98305.45
2018-07-15T07:39:52.746Z,98302.28
2018-07-15T07:42:21.209Z,98303.34
2018-07-15T07:44:49.671Z,98297.04
2018-07-15T07:47:18.117Z,98299.44
2018-07-15T07:49:46.591Z,98305.40
2018-07-15T07:52:15.360Z,98299.06
2018-07-15T07:54:43.752Z,98299.36
2018-07-15T07:57:12.196Z,98300.20
2018-07-15T07:59:40.627Z,98295.80
2018-07-15T08:02:09.065Z,98295.52
2018-07-15T08:04:37.547Z,98293.28
2018-07-15T08:07:06.005Z,98301.67
2018-07-15T08:09:34.500Z,98297.70
2018-07-15T08:12:03.344Z,98294.41
2018-07-15T08:14:31.816Z,98293.52
2018-07-15T08:17:00.441Z,98289.62
2018-07-15T08:19:29.122Z,98290.39
2018-07-15T08:21:57.574Z,98290.91
2018-07-15T08:24:26.418Z,98289.84
2018-07-15T08:26:55.141Z,98296.33
2018-07-15T08:29:23.993Z,98291.28
2018-07-15T08:31:52.464Z,98291.46
2018-07-15T08:34:20.894Z,98294.95
2018-07-15T08:36:49.353Z,98293.44
2018-07-15T08:39:18.107Z,98280.13
2018-07-15T08:41:47.122Z,98281.50
2018-07-15T08:44:15.545Z,98281.06
2018-07-15T08:46:44.187Z,98284.53
2018-07-15T08:49:12.666Z,98281.39
2018-07-15T08:51:41.483Z,98281.98
2018-07-15T08:54:09.988Z,98278.48
2018-07-15T08:56:38.392Z,98275.11
2018-07-15T08:59:06.932Z,98277.73
2018-07-15T09:01:35.413Z,98275.08
2018-07-15T09:04:04.228Z,98279.63
2018-07-15T09:06:32.748Z,98276.94
2018-07-15T09:09:01.168Z,98275.12
2018-07-15T09:11:29.624Z,98267.91
2018-07-15T09:16:32.995Z,98266.36
2018-07-15T09:19:01.551Z,98268.28
2018-07-15T09:21:29.967Z,98267.87
2018-07-15T09:23:58.538Z,98267.62
2018-07-15T09:26:27.354Z,98265.81
2018-07-15T09:28:55.867Z,98263.67
2018-07-15T09:31:24.328Z,98270.00
2018-07-15T09:33:53.158Z,98269.90
2018-07-15T09:36:21.648Z,98266.22
2018-07-15T09:38:50.277Z,98266.98
2018-07-15T09:41:18.703Z,98259.25
2018-07-15T09:43:47.384Z,98257.66
2018-07-15T09:46:16.083Z,98257.17
2018-07-15T09:48:44.513Z,98256.23
2018-07-15T09:51:13.173Z,98244.12
2018-07-15T09:53:41.664Z,98250.27
2018-07-15T09:56:10.616Z,98252.95
2018-07-15T09:58:39.127Z,98242.39
2018-07-15T10:01:07.927Z,98242.25
2018-07-15T10:03:36.455Z,98242.53
2018-07-15T10:06:05.018Z,98239.46
2018-07-15T10:08:33.576Z,98234.06
2018-07-15T10:11:02.077Z,98230.73
2018-07-15T10:13:30.520Z,98228.58
2018-07-15T10:15:58.960Z,98220.69
2018-07-15T10:18:27.438Z,98226.98
2018-07-15T10:20:55.880Z,98219.68
2018-07-15T10:23:24.631Z,98213.70
2018-07-15T10:25:53.091Z,98207.73
2018-07-15T10:28:21.807Z,98207.41
2018-07-15T10:30:50.404Z,98205.59
2018-07-15T10:33:19.289Z,98198.83
2018-07-15T10:35:47.687Z,98198.23
2018-07-15T10:38:16.383Z,98196.72
2018-07-15T10:40:45.152Z,98188.41
2018-07-15T10:43:13.637Z,98186.64
2018-07-15T10:45:42.206Z,98183.48
2018-07-15T10:48:10.660Z,98173.16
2018-07-15T10:50:39.157Z,98165.94
2018-07-15T10:53:07.640Z,98166.78
2018-07-15T10:55:36.144Z,98162.95
2018-07-15T10:58:04.744Z,98160.34
2018-07-15T11:00:33.239Z,98161.36
2018-07-15T11:03:01.703Z,98157.75
2018-07-15T11:05:30.204Z,98152.36
2018-07-15T11:07:58.859Z,98149.97
2018-07-15T11:10:27.300Z,98142.55
2018-07-15T11:12:55.757Z,98136.66
2018-07-15T11:15:24.197Z,98139.95
2018-07-15T11:17:52.960Z,98140.59
2018-07-15T11:20:21.411Z,98140.91
2018-07-15T11:22:50.080Z,98143.05
2018-07-15T11:25:18.548Z,98140.86
2018-07-15T11:27:47.008Z,98140.73
2018-07-15T11:30:15.680Z,98142.26
2018-07-15T11:32:44.360Z,98135.02
2018-07-15T11:35:12.955Z,98137.77
2018-07-15T11:37:41.422Z,98131.44
2018-07-15T11:40:10.172Z,98132.63
2018-07-15T11:42:38.609Z,98121.33
2018-07-15T11:45:07.179Z,98124.47
2018-07-15T11:47:35.803Z,98121.52
2018-07-15T11:50:04.581Z,98122.63
2018-07-15T11:52:33.094Z,98125.55
2018-07-15T11:55:01.503Z,98117.80
2018-07-15T11:57:29.906Z,98126.18
2018-07-15T11:59:58.370Z,98134.45
2018-07-15T12:02:26.978Z,98127.53
2018-07-15T12:04:55.807Z,98131.03
2018-07-15T12:07:24.229Z,98146.57
2018-07-15T12:09:52.671Z,98140.19
2018-07-15T12:12:21.390Z,98134.52
2018-07-15T12:14:49.820Z,98141.17
2018-07-15T12:17:18.644Z,98147.44
2018-07-15T12:19:47.228Z,98135.48
2018-07-15T12:22:15.737Z,98129.39
2018-07-15T12:24:44.208Z,98122.63
2018-07-15T12:27:12.727Z,98124.07
2018-07-15T12:29:41.339Z,98124.42
2018-07-15T12:32:09.847Z,98123.92
2018-07-15T12:34:38.687Z,98127.81
2018-07-15T12:37:07.231Z,98117.80
2018-07-15T12:39:35.632Z,98111.23
2018-07-15T12:42:04.329Z,98096.84
2018-07-15T12:44:33.060Z,98097.63
2018-07-15T12:47:01.506Z,98087.17
2018-07-15T12:49:30.423Z,98093.28
2018-07-15T12:51:59.082Z,98090.97
2018-07-15T12:54:27.732Z,98094.77
2018-07-15T12:56:56.277Z,98093.69
2018-07-15T12:59:24.713Z,98086.42
2018-07-15T13:01:53.153Z,98094.59
2018-07-15T13:04:21.632Z,98093.32
2018-07-15T13:06:50.432Z,98094.44
2018-07-15T13:09:19.215Z,98097.98
2018-07-15T13:11:47.923Z,98095.98
2018-07-15T13:14:16.353Z,98093.66
2018-07-15T13:16:44.821Z,98097.20
2018-07-15T13:19:13.658Z,98093.70
2018-07-15T13:21:42.083Z,98100.56
2018-07-15T13:24:10.551Z,98103.11
2018-07-15T13:26:38.947Z,98096.17
2018-07-15T13:29:08.003Z,98104.19
2018-07-15T13:31:36.584Z,98097.73
2018-07-15T13:34:05.007Z,98103.67
2018-07-15T13:36:33.591Z,98100.16
2018-07-15T13:39:02.172Z,98114.11
2018-07-15T13:41:30.740Z,98108.23
2018-07-15T13:43:59.397Z,98116.64
2018-07-15T13:46:27.867Z,98105.31
2018-07-15T13:48:56.259Z,98112.13
2018-07-15T13:51:24.944Z,98113.05
2018-07-15T13:53:53.620Z,98117.68
2018-07-15T13:56:22.135Z,98122.08
2018-07-15T13:58:50.916Z,98128.48
2018-07-15T14:01:19.436Z,98120.20
2018-07-15T14:03:47.823Z,98118.51
2018-07-15T14:06:16.301Z,98120.34
2018-07-15T14:08:44.762Z,98113.52
2018-07-15T14:11:13.209Z,98113.09
2018-07-15T14:13:41.634Z,98105.89
2018-07-15T14:16:10.075Z,98099.88
2018-07-15T14:18:38.554Z,98106.44
2018-07-15T14:21:07.552Z,98092.33
2018-07-15T14:23:36.303Z,98092.52
2018-07-15T14:26:04.952Z,98087.45
2018-07-15T14:28:33.538Z,98092.72
2018-07-15T14:31:02.020Z,98093.25
2018-07-15T14:33:30.787Z,98085.55
2018-07-15T14:35:59.683Z,98083.66
2018-07-15T14:38:28.499Z,98082.36
2018-07-15T14:40:57.008Z,98077.58
2018-07-15T14:43:25.527Z,98071.88
2018-07-15T14:45:55.028Z,98078.64
2018-07-15T14:48:23.887Z,98079.34
2018-07-15T14:50:52.496Z,98070.07
2018-07-15T14:53:20.970Z,98070.45
2018-07-15T14:55:49.454Z,98064.77
2018-07-15T14:58:17.851Z,98071.77
2018-07-15T15:00:46.723Z,98069.42
2018-07-15T15:03:15.147Z,98073.75
2018-07-15T15:05:43.800Z,98075.72
2018-07-15T15:08:12.482Z,98072.80
2018-07-15T15:10:40.951Z,98078.20
2018-07-15T15:13:09.464Z,98081.16
2018-07-15T15:15:37.907Z,98077.16
2018-07-15T15:18:06.340Z,98081.99
2018-07-15T15:20:34.782Z,98083.89
2018-07-15T15:23:03.232Z,98088.47
2018-07-15T15:25:31.645Z,98089.99
2018-07-15T15:28:00.400Z,98082.61
2018-07-15T15:30:28.868Z,98080.45
2018-07-15T15:32:57.287Z,98070.77
2018-07-15T15:35:25.760Z,98063.52
2018-07-15T15:37:54.159Z,98055.56
2018-07-15T15:40:22.769Z,98054.81
2018-07-15T15:42:52.126Z,98058.61
2018-07-15T15:45:20.665Z,98052.67
2018-07-15T15:47:49.166Z,98053.79
2018-07-15T15:50:17.712Z,98048.92
2018-07-15T15:52:46.266Z,98051.38
2018-07-15T15:55:14.904Z,98036.59
2018-07-15T15:57:43.339Z,98046.06
2018-07-15T16:00:12.183Z,98045.28
2018-07-15T16:02:40.839Z,98046.55
2018-07-15T16:05:10.320Z,98045.33
2018-07-15T16:07:38.856Z,98042.04
2018-07-15T16:10:07.998Z,98042.50
2018-07-15T16:12:36.445Z,98032.70
2018-07-15T16:15:05.161Z,98027.75
2018-07-15T16:17:33.643Z,98034.39
2018-07-15T16:20:02.167Z,98027.45
2018-07-15T16:22:31.000Z,98024.43
2018-07-15T16:24:59.633Z,98021.94
2018-07-15T16:27:28.155Z,98018.09
2018-07-15T16:29:57.604Z,98017.13
2018-07-15T16:32:26.225Z,98016.52
2018-07-15T16:34:54.632Z,98015.08
2018-07-15T16:37:23.096Z,98008.06
2018-07-15T16:39:51.509Z,98011.39
2018-07-15T16:42:20.362Z,98012.06
2018-07-15T16:44:48.884Z,98004.30
2018-07-15T16:47:17.418Z,98004.28
2018-07-15T16:49:45.897Z,98006.64
2018-07-15T16:52:14.343Z,98017.35
2018-07-15T16:54:43.034Z,98018.02
2018-07-15T16:57:11.715Z,98028.88
2018-07-15T16:59:40.306Z,98124.95
2018-07-15T17:02:08.738Z,98097.33
2018-07-15T17:04:37.129Z,98060.43
2018-07-15T17:07:06.112Z,98038.47
2018-07-15T17:09:35.053Z,98024.36
2018-07-15T17:12:03.794Z,98025.55
2018-07-15T17:14:32.256Z,98032.27
2018-07-15T17:17:00.748Z,98024.02
2018-07-15T17:19:29.575Z,98032.94
2018-07-15T17:21:58.027Z,98029.98
2018-07-15T17:24:26.581Z,98028.05
2018-07-15T17:26:55.046Z,98034.92
2018-07-15T17:29:24.068Z,98032.28
2018-07-15T17:31:52.982Z,98037.16
2018-07-15T17:34:21.482Z,98039.04
2018-07-15T17:36:50.589Z,98038.98
2018-07-15T17:39:19.208Z,98032.88
2018-07-15T17:41:47.706Z,98034.05
2018-07-15T17:44:16.835Z,98042.16
2018-07-15T17:46:45.399Z,98042.86
2018-07-15T17:49:13.921Z,98040.31
2018-07-15T17:51:42.700Z,98045.55
2018-07-15T17:54:11.380Z,98043.44
2018-07-15T17:56:39.904Z,98034.41
2018-07-15T17:59:08.554Z,98045.84
2018-07-15T18:01:36.981Z,98013.09
2018-07-15T18:04:05.434Z,98057.31
2018-07-15T18:06:34.027Z,98051.10
2018-07-15T18:09:02.670Z,98056.19
2018-07-15T18:11:31.211Z,98052.70
2018-07-15T18:13:59.629Z,98053.34
2018-07-15T18:16:28.208Z,98053.02
2018-07-15T18:18:56.680Z,98055.00
2018-07-15T18:21:25.511Z,98058.37
2018-07-15T18:23:53.969Z,98072.02
2018-07-15T18:26:22.375Z,98093.94
2018-07-15T18:28:50.761Z,98076.79
2018-07-15T18:31:19.248Z,98069.58
2018-07-15T18:33:47.680Z,98072.09
2018-07-15T18:36:16.469Z,98075.15
2018-07-15T18:38:44.899Z,98082.88
2018-07-15T18:41:13.580Z,98060.59
2018-07-15T18:43:42.336Z,98065.43
2018-07-15T18:46:10.940Z,98071.13
2018-07-15T18:48:39.493Z,98068.92
2018-07-15T18:51:08.036Z,98071.27
2018-07-15T18:53:36.546Z,98076.36
2018-07-15T18:56:05.164Z,98072.00
2018-07-15T18:58:33.654Z,98075.35
2018-07-15T19:01:02.351Z,98086.40
2018-07-15T19:03:30.784Z,98090.95
2018-07-15T19:05:59.207Z,98090.06
2018-07-15T19:08:27.752Z,98092.61
2018-07-15T19:10:56.512Z,98100.95
2018-07-15T19:13:25.011Z,98102.03
2018-07-15T19:15:53.434Z,98105.77
2018-07-15T19:18:21.868Z,98106.34
2018-07-15T19:20:50.316Z,98109.80
2018-07-15T19:23:18.731Z,98111.18
2018-07-15T19:25:47.195Z,98112.36
2018-07-15T19:28:15.861Z,98108.92
2018-07-15T19:30:44.321Z,98106.59
2018-07-15T19:33:13.127Z,98117.31
2018-07-15T19:35:41.566Z,98115.34
2018-07-15T19:38:10.235Z,98117.52
2018-07-15T19:40:38.687Z,98116.62
2018-07-15T19:43:07.136Z,98116.88
2018-07-15T19:45:35.784Z,98113.16
2018-07-15T19:48:04.282Z,98128.22
2018-07-15T19:50:32.810Z,98129.55
2018-07-15T19:53:01.269Z,98127.23
2018-07-15T19:55:29.737Z,98122.08
2018-07-15T19:57:58.180Z,98128.00
2018-07-15T20:00:27.179Z,98132.75
2018-07-15T20:02:56.446Z,98130.27
2018-07-15T20:05:24.888Z,98126.72
2018-07-15T20:07:53.386Z,98123.71
2018-07-15T20:10:21.887Z,98120.42
2018-07-15T20:12:50.343Z,98121.28
2018-07-15T20:15:18.830Z,98126.95
2018-07-15T20:17:47.292Z,98116.77
2018-07-15T20:20:15.785Z,98120.27
2018-07-15T20:22:44.264Z,98123.28
2018-07-15T20:25:12.963Z,98123.94
2018-07-15T20:27:41.461Z,98120.62
2018-07-15T20:30:10.047Z,98122.62
2018-07-15T20:32:38.474Z,98120.28
2018-07-15T20:35:07.122Z,98116.63
2018-07-15T20:37:35.632Z,98117.97
2018-07-15T20:40:04.136Z,98116.80
2018-07-15T20:42:32.876Z,98115.62
2018-07-15T20:45:01.272Z,98098.95
2018-07-15T20:47:29.953Z,98098.95
2018-07-15T20:49:58.644Z,98092.44
2018-07-15T20:52:27.108Z,98090.94
2018-07-15T20:54:55.655Z,98092.06
2018-07-15T20:57:24.414Z,98095.08
2018-07-15T20:59:53.026Z,98103.23
2018-07-15T21:02:21.681Z,98119.19
2018-07-15T21:04:50.132Z,98124.16
2018-07-15T21:07:18.845Z,98119.16
2018-07-15T21:09:47.258Z,98112.14
2018-07-15T21:12:16.499Z,98106.16
2018-07-15T21:14:44.947Z,98104.97
2018-07-15T21:17:13.411Z,98114.44
2018-07-15T21:19:41.843Z,98115.22
2018-07-15T21:22:10.313Z,98118.70
2018-07-15T21:24:39.059Z,98117.02
2018-07-15T21:27:07.483Z,98115.97
2018-07-15T21:29:35.940Z,98119.23
2018-07-15T21:32:04.508Z,98126.91
2018-07-15T21:34:32.925Z,98125.05
2018-07-15T21:37:01.391Z,98121.53
2018-07-15T21:39:29.801Z,98124.83
2018-07-15T21:41:58.255Z,98133.56
2018-07-15T21:44:26.659Z,98133.56
2018-07-15T21:46:55.348Z,98136.95
2018-07-15T21:49:23.830Z,98133.56
2018-07-15T21:51:52.273Z,98136.67
2018-07-15T21:54:20.744Z,98128.80
2018-07-15T21:56:49.188Z,98136.81
2018-07-15T21:59:17.598Z,98137.34
2018-07-15T22:01:46.106Z,98139.38
2018-07-15T22:04:14.522Z,98131.25
2018-07-15T22:06:54.166Z,98144.34
2018-07-15T22:09:48.183Z,98145.71
2018-07-15T22:12:16.635Z,98150.66
2018-07-15T22:14:45.053Z,98151.18
2018-07-15T22:17:13.496Z,98152.83
2018-07-15T22:19:41.983Z,98148.83
2018-07-15T22:22:10.412Z,98144.80
2018-07-15T22:24:39.187Z,98151.11
2018-07-15T22:27:07.670Z,98151.35
2018-07-15T22:29:36.130Z,98150.72
2018-07-15T22:32:05.200Z,98157.66
2018-07-15T22:34:33.714Z,98164.42
2018-07-15T22:37:02.185Z,98160.45
2018-07-15T22:39:30.627Z,98163.73
2018-07-15T22:41:59.350Z,98162.31
2018-07-15T22:44:28.024Z,98163.94
2018-07-15T22:46:56.434Z,98156.64
2018-07-15T22:49:24.854Z,98153.22
2018-07-15T22:51:53.361Z,98155.34
2018-07-15T22:54:21.792Z,98154.95
2018-07-15T22:56:50.243Z,98150.55
2018-07-15T22:59:18.700Z,98157.42
2018-07-15T23:01:47.171Z,98155.56
2018-07-15T23:04:15.640Z,98151.63
2018-07-15T23:06:44.114Z,98154.23
2018-07-15T23:09:12.592Z,98157.37
2018-07-15T23:11:41.042Z,98161.18
2018-07-15T23:14:09.665Z,98161.61
2018-07-15T23:16:38.071Z,98163.30
2018-07-15T23:19:06.496Z,98158.64
2018-07-15T23:21:34.952Z,98162.63
2018-07-15T23:24:03.371Z,98168.70
2018-07-15T23:26:31.881Z,98162.69
2018-07-15T23:29:00.312Z,98158.95
2018-07-15T23:31:28.739Z,98166.78
2018-07-15T23:33:57.176Z,98170.55
2018-07-15T23:36:25.592Z,98167.52
2018-07-15T23:38:54.091Z,98171.07
2018-07-15T23:41:22.529Z,98167.41
2018-07-15T23:43:50.994Z,98165.38
2018-07-15T23:46:19.491Z,98168.62
2018-07-15T23:48:47.896Z,98160.66
2018-07-15T23:51:16.487Z,98169.97
2018-07-15T23:53:44.931Z,98157.98
2018-07-15T23:56:13.393Z,98161.97
2018-07-15T23:58:41.802Z,98160.45
